Time;durP1;ratioP1;P1;durP2;ratioP2;P2;SDS_P1;SDS_P2;PMS_P1;PMS_P2;Temp;Humidity;BMP_temperature;BMP_pressure;BME280_temperature;BME280_humidity;BME280_pressure;Samples;Min_cycle;Max_cycle;Signal;HPM_P1;HPM_P2
2023/03/13 00:02:21;;;;;;;6.10;1.90;;;;;;;;;;106806;1277;22540;-79
2023/03/13 00:04:48;;;;;;;6.30;1.90;;;;;;;;;;106764;1257;22646;-72
2023/03/13 00:07:15;;;;;;;4.40;1.30;;;;;;;;;;106795;1278;22479;-77
2023/03/13 00:09:42;;;;;;;6.50;1.90;;;;;;;;;;106801;1278;22543;-74
2023/03/13 00:12:12;;;;;;;6.10;1.70;;;;;;;;;;106798;1278;25470;-72
2023/03/13 00:14:38;;;;;;;6.30;1.60;;;;;;;;;;106813;1259;24257;-83
2023/03/13 00:17:05;;;;;;;4.50;1.50;;;;;;;;;;106833;1277;24190;-75
2023/03/13 00:19:32;;;;;;;6.20;1.60;;;;;;;;;;106859;1277;22523;-78
2023/03/13 00:21:58;;;;;;;6.00;1.60;;;;;;;;;;106823;1277;22535;-72
2023/03/13 00:24:25;;;;;;;4.80;1.50;;;;;;;;;;106668;1260;22531;-72
2023/03/13 00:27:02;;;;;;;4.80;1.50;;;;;;;;;;106658;1257;22576;-72
2023/03/13 00:29:31;;;;;;;5.00;1.40;;;;;;;;;;106753;1278;26557;-78
2023/03/13 00:32:18;;;;;;;6.10;1.60;;;;;;;;;;106768;1278;24238;-77
2023/03/13 00:34:48;;;;;;;5.20;1.60;;;;;;;;;;106847;1258;24237;-77
2023/03/13 00:37:17;;;;;;;5.70;1.60;;;;;;;;;;106833;1277;22568;-76
2023/03/13 00:39:44;;;;;;;5.70;1.80;;;;;;;;;;106812;1277;22527;-79
2023/03/13 00:42:11;;;;;;;5.90;1.60;;;;;;;;;;106777;1277;22535;-73
2023/03/13 00:44:58;;;;;;;6.40;1.80;;;;;;;;;;106772;1260;22523;-79
2023/03/13 00:47:25;;;;;;;6.70;2.10;;;;;;;;;;106380;1283;25467;-73
2023/03/13 00:49:52;;;;;;;7.90;2.30;;;;;;;;;;106375;1283;25403;-73
2023/03/13 00:52:23;;;;;;;9.50;2.40;;;;;;;;;;106399;1283;25244;-73
2023/03/13 00:55:11;;;;;;;7.90;2.30;;;;;;;;;;106414;1282;24232;-76
2023/03/13 00:57:38;;;;;;;8.30;2.60;;;;;;;;;;106398;1282;22656;-78
2023/03/13 01:00:05;;;;;;;7.00;2.20;;;;;;;;;;106383;1282;22534;-79
2023/03/13 01:02:52;;;;;;;6.30;2.00;;;;;;;;;;106476;1282;22530;-79
2023/03/13 01:05:19;;;;;;;8.40;2.30;;;;;;;;;;106416;1263;22526;-76
2023/03/13 01:07:56;;;;;;;;;;;;;;;;;;;;;
2023/03/13 01:10:23;;;;;;;7.80;2.60;;;;;;;;;;106377;1283;26573;-75
2023/03/13 01:12:50;;;;;;;6.70;2.30;;;;;;;;;;106370;1283;22541;-73
2023/03/13 01:15:37;;;;;;;7.10;2.60;;;;;;;;;;106378;1267;22627;-76
2023/03/13 01:18:04;;;;;;;8.40;2.60;;;;;;;;;;106617;1259;22590;-75
2023/03/13 01:20:32;;;;;;;7.40;2.40;;;;;;;;;;106834;1277;22742;-77
2023/03/13 01:22:59;;;;;;;9.70;3.10;;;;;;;;;;106833;1277;21755;-79
2023/03/13 01:25:26;;;;;;;8.60;2.70;;;;;;;;;;110365;1260;22293;-72
2023/03/13 01:27:52;;;;;;;10.30;2.90;;;;;;;;;;110149;1278;22238;-72
2023/03/13 01:30:19;;;;;;;8.80;2.90;;;;;;;;;;110270;1278;22508;-73
2023/03/13 01:32:46;;;;;;;8.10;2.80;;;;;;;;;;110429;1278;22179;-72
2023/03/13 01:35:14;;;;;;;8.70;3.10;;;;;;;;;;110294;1254;22167;-72
2023/03/13 01:37:40;;;;;;;10.10;3.10;;;;;;;;;;110235;1265;22128;-72
2023/03/13 01:40:07;;;;;;;7.40;2.50;;;;;;;;;;110398;1277;22865;-73
2023/03/13 01:42:58;;;;;;;9.70;3.00;;;;;;;;;;110398;1277;22111;-72
2023/03/13 01:45:43;;;;;;;7.90;2.90;;;;;;;;;;110166;1257;22957;-72
2023/03/13 01:48:10;;;;;;;6.90;2.40;;;;;;;;;;110120;1280;22807;-72
2023/03/13 01:50:46;;;;;;;8.10;2.90;;;;;;;;;;110034;1280;22110;-72
2023/03/13 01:53:22;;;;;;;8.60;2.80;;;;;;;;;;110143;1280;22100;-73
2023/03/13 01:55:50;;;;;;;9.60;2.70;;;;;;;;;;110149;1256;22232;-72
2023/03/13 01:58:17;;;;;;;8.30;3.10;;;;;;;;;;110205;1279;22146;-72
2023/03/13 02:00:44;;;;;;;10.70;3.20;;;;;;;;;;110161;1279;22137;-72
2023/03/13 02:03:13;;;;;;;7.20;2.60;;;;;;;;;;110159;1279;22121;-72
2023/03/13 02:05:41;;;;;;;9.00;3.10;;;;;;;;;;110174;1279;22134;-72
2023/03/13 02:08:10;;;;;;;10.70;3.00;;;;;;;;;;110143;1262;22103;-73
2023/03/13 02:10:40;;;;;;;8.40;3.50;;;;;;;;;;110158;1279;23049;-72
2023/03/13 02:13:09;;;;;;;8.30;3.00;;;;;;;;;;110203;1279;22119;-72
2023/03/13 02:15:39;;;;;;;8.50;2.70;;;;;;;;;;110216;1279;22107;-73
2023/03/13 02:18:06;;;;;;;7.30;2.70;;;;;;;;;;110434;1262;22120;-73
2023/03/13 02:20:33;;;;;;;9.40;2.80;;;;;;;;;;110158;1279;22995;-72
2023/03/13 02:23:10;;;;;;;8.30;3.20;;;;;;;;;;110184;1279;22339;-72
2023/03/13 02:25:37;;;;;;;10.60;3.90;;;;;;;;;;110171;1279;22193;-72
2023/03/13 02:28:05;;;;;;;10.70;3.90;;;;;;;;;;110430;1262;22163;-72
2023/03/13 02:30:33;;;;;;;13.40;4.90;;;;;;;;;;110160;1279;22840;-72
2023/03/13 02:33:01;;;;;;;11.80;5.20;;;;;;;;;;110143;1279;22087;-73
2023/03/13 02:35:28;;;;;;;12.00;4.40;;;;;;;;;;110167;1279;22129;-72
2023/03/13 02:37:58;;;;;;;14.40;5.00;;;;;;;;;;110722;1256;23130;-73
2023/03/13 02:40:33;;;;;;;14.40;4.90;;;;;;;;;;110428;1277;22217;-73
2023/03/13 02:43:03;;;;;;;13.40;5.30;;;;;;;;;;110204;1277;22113;-73
2023/03/13 02:45:30;;;;;;;14.30;4.70;;;;;;;;;;110274;1277;22207;-73
2023/03/13 02:47:57;;;;;;;13.40;4.90;;;;;;;;;;110527;1260;22253;-72
2023/03/13 02:50:24;;;;;;;14.60;5.80;;;;;;;;;;110454;1276;22814;-72
2023/03/13 02:52:57;;;;;;;15.10;5.30;;;;;;;;;;110291;1276;22748;-73
2023/03/13 02:55:27;;;;;;;12.60;5.30;;;;;;;;;;110425;1276;22304;-72
2023/03/13 02:57:54;;;;;;;15.10;5.70;;;;;;;;;;110730;1256;22281;-72
2023/03/13 03:00:25;;;;;;;12.50;5.00;;;;;;;;;;110494;1276;22287;-72
2023/03/13 03:02:53;;;;;;;13.10;5.50;;;;;;;;;;110580;1276;22093;-73
2023/03/13 03:05:21;;;;;;;13.50;4.90;;;;;;;;;;110477;1276;22102;-72
2023/03/13 03:07:48;;;;;;;12.30;5.00;;;;;;;;;;110428;1269;22222;-72
2023/03/13 03:10:15;;;;;;;10.80;4.60;;;;;;;;;;110447;1276;22124;-73
2023/03/13 03:12:42;;;;;;;13.20;5.10;;;;;;;;;;110434;1276;22236;-73
2023/03/13 03:15:09;;;;;;;13.20;5.30;;;;;;;;;;110434;1276;22221;-72
2023/03/13 03:17:36;;;;;;;14.30;5.50;;;;;;;;;;110565;1268;22192;-72
2023/03/13 03:20:06;;;;;;;13.10;5.90;;;;;;;;;;110490;1276;23167;-72
2023/03/13 03:22:33;;;;;;;13.10;5.10;;;;;;;;;;110475;1276;22124;-74
2023/03/13 03:25:00;;;;;;;16.10;5.40;;;;;;;;;;110501;1276;22829;-72
2023/03/13 03:27:27;;;;;;;12.10;4.80;;;;;;;;;;110480;1253;22138;-73
2023/03/13 03:29:54;;;;;;;13.30;5.10;;;;;;;;;;110150;1275;22132;-72
2023/03/13 03:32:21;;;;;;;14.50;5.80;;;;;;;;;;110331;1276;22141;-72
2023/03/13 03:34:47;;;;;;;16.00;6.20;;;;;;;;;;110228;1276;22223;-73
2023/03/13 03:37:14;;;;;;;16.20;6.80;;;;;;;;;;110201;1276;22207;-73
2023/03/13 03:39:41;;;;;;;15.40;5.90;;;;;;;;;;110849;1253;22126;-72
2023/03/13 03:42:08;;;;;;;14.10;6.10;;;;;;;;;;110591;1276;21961;-72
2023/03/13 03:44:35;;;;;;;18.00;7.00;;;;;;;;;;110501;1276;21989;-73
2023/03/13 03:47:03;;;;;;;15.00;5.80;;;;;;;;;;110385;1276;22101;-73
2023/03/13 03:49:33;;;;;;;15.30;6.50;;;;;;;;;;110566;1256;22840;-73
2023/03/13 03:52:00;;;;;;;14.20;5.80;;;;;;;;;;110401;1277;22104;-73
2023/03/13 03:54:30;;;;;;;15.30;5.60;;;;;;;;;;110324;1277;22088;-73
2023/03/13 03:56:57;;;;;;;14.70;6.30;;;;;;;;;;110433;1277;22139;-73
2023/03/13 03:59:24;;;;;;;15.80;6.60;;;;;;;;;;110613;1256;22097;-73
2023/03/13 04:01:57;;;;;;;13.20;6.40;;;;;;;;;;110459;1276;22137;-72
2023/03/13 04:04:25;;;;;;;16.50;6.60;;;;;;;;;;110476;1276;22131;-73
2023/03/13 04:06:59;;;;;;;14.80;5.60;;;;;;;;;;110490;1276;22159;-72
2023/03/13 04:09:27;;;;;;;14.70;6.40;;;;;;;;;;110526;1256;22948;-73
2023/03/13 04:11:54;;;;;;;15.20;6.60;;;;;;;;;;110230;1277;22181;-72
2023/03/13 04:14:21;;;;;;;14.80;6.60;;;;;;;;;;110424;1277;22918;-72
2023/03/13 04:16:48;;;;;;;17.60;6.30;;;;;;;;;;110480;1277;22207;-73
2023/03/13 04:19:15;;;;;;;16.00;6.10;;;;;;;;;;110547;1258;22115;-73
2023/03/13 04:21:42;;;;;;;15.40;6.80;;;;;;;;;;110500;1276;22870;-73
2023/03/13 04:24:13;;;;;;;16.70;6.60;;;;;;;;;;110475;1276;22143;-72
2023/03/13 04:26:41;;;;;;;13.10;6.50;;;;;;;;;;110355;1276;22180;-73
2023/03/13 04:29:08;;;;;;;15.70;6.50;;;;;;;;;;110489;1257;22123;-73
2023/03/13 04:32:04;;;;;;;14.80;6.60;;;;;;;;;;110028;1277;22162;-73
2023/03/13 04:34:53;;;;;;;19.40;7.40;;;;;;;;;;110124;1277;22127;-73
2023/03/13 04:37:42;;;;;;;17.10;6.50;;;;;;;;;;110411;1277;22121;-73
2023/03/13 04:40:28;;;;;;;16.40;7.10;;;;;;;;;;110658;1256;22213;-72
2023/03/13 04:42:55;;;;;;;16.80;7.20;;;;;;;;;;110532;1276;22099;-73
2023/03/13 04:45:24;;;;;;;16.90;8.00;;;;;;;;;;110492;1277;22959;-73
2023/03/13 04:48:02;;;;;;;19.30;8.60;;;;;;;;;;110439;1277;22458;-73
2023/03/13 04:50:58;;;;;;;18.20;8.30;;;;;;;;;;110391;1259;22365;-72
2023/03/13 04:53:30;;;;;;;20.90;7.90;;;;;;;;;;110493;1277;22838;-72
2023/03/13 04:56:04;;;;;;;19.70;8.10;;;;;;;;;;110805;1257;22102;-72
2023/03/13 04:58:57;;;;;;;18.70;7.90;;;;;;;;;;110295;1276;22997;-73
2023/03/13 05:01:42;;;;;;;18.00;7.60;;;;;;;;;;110827;1256;22889;-72
2023/03/13 05:04:15;;;;;;;16.70;7.20;;;;;;;;;;110225;1278;22154;-72
2023/03/13 05:06:57;;;;;;;17.60;6.80;;;;;;;;;;110270;1278;22890;-73
2023/03/13 05:09:48;;;;;;;17.50;7.80;;;;;;;;;;110299;1254;22450;-73
2023/03/13 05:12:33;;;;;;;17.60;8.00;;;;;;;;;;110494;1277;22154;-72
2023/03/13 05:15:10;;;;;;;21.80;8.60;;;;;;;;;;110494;1277;22165;-73
2023/03/13 05:18:11;;;;;;;21.60;8.30;;;;;;;;;;110495;1277;22188;-72
2023/03/13 05:20:42;;;;;;;20.40;7.60;;;;;;;;;;110461;1256;22211;-73
2023/03/13 05:23:27;;;;;;;23.20;8.30;;;;;;;;;;110452;1278;22213;-73
2023/03/13 05:26:17;;;;;;;21.70;8.30;;;;;;;;;;110333;1278;22090;-72
2023/03/13 05:28:57;;;;;;;20.50;8.10;;;;;;;;;;110234;1278;22072;-72
2023/03/13 05:31:55;;;;;;;18.80;8.20;;;;;;;;;;110757;1255;22167;-79
2023/03/13 05:34:40;;;;;;;19.50;8.60;;;;;;;;;;110456;1277;22108;-73
2023/03/13 05:37:33;;;;;;;19.40;8.30;;;;;;;;;;110336;1277;22249;-72
2023/03/13 05:40:20;;;;;;;21.50;8.40;;;;;;;;;;110421;1254;22635;-72
2023/03/13 05:43:06;;;;;;;24.60;9.50;;;;;;;;;;110409;1278;22131;-72
2023/03/13 05:45:49;;;;;;;23.80;9.00;;;;;;;;;;110183;1278;22120;-73
2023/03/13 05:48:46;;;;;;;20.50;9.30;;;;;;;;;;110310;1278;22116;-73
2023/03/13 05:51:23;;;;;;;22.70;9.50;;;;;;;;;;110543;1254;22105;-72
2023/03/13 05:54:03;;;;;;;22.00;9.10;;;;;;;;;;110372;1277;22376;-72
2023/03/13 05:56:41;;;;;;;23.50;9.40;;;;;;;;;;110409;1277;21979;-72
2023/03/13 05:59:25;;;;;;;23.70;9.60;;;;;;;;;;110422;1277;22114;-71
2023/03/13 06:02:10;;;;;;;27.40;9.80;;;;;;;;;;110688;1259;22252;-72
2023/03/13 06:04:40;;;;;;;25.00;9.60;;;;;;;;;;110129;1278;22166;-73
2023/03/13 06:07:07;;;;;;;23.30;8.90;;;;;;;;;;110119;1278;22117;-71
2023/03/13 06:09:33;;;;;;;21.20;9.20;;;;;;;;;;110124;1278;22130;-72
2023/03/13 06:12:00;;;;;;;25.30;8.80;;;;;;;;;;110369;1259;22845;-72
2023/03/13 06:14:27;;;;;;;20.00;8.30;;;;;;;;;;110256;1277;22120;-71
2023/03/13 06:17:15;;;;;;;20.70;8.80;;;;;;;;;;110266;1277;22616;-71
2023/03/13 06:19:43;;;;;;;19.20;7.70;;;;;;;;;;110477;1277;22121;-72
2023/03/13 06:22:09;;;;;;;19.90;8.60;;;;;;;;;;110322;1260;22125;-72
2023/03/13 06:24:36;;;;;;;19.90;7.70;;;;;;;;;;110258;1278;22376;-72
2023/03/13 06:27:03;;;;;;;25.30;8.00;;;;;;;;;;110284;1278;22156;-72
2023/03/13 06:29:30;;;;;;;20.10;7.60;;;;;;;;;;110262;1278;22184;-72
2023/03/13 06:31:57;;;;;;;20.70;7.40;;;;;;;;;;110531;1257;23185;-73
2023/03/13 06:34:24;;;;;;;21.20;8.10;;;;;;;;;;110407;1277;22855;-72
2023/03/13 06:36:51;;;;;;;23.80;7.20;;;;;;;;;;110440;1277;22256;-72
2023/03/13 06:39:18;;;;;;;23.00;7.20;;;;;;;;;;110390;1277;22109;-71
2023/03/13 06:41:44;;;;;;;24.90;7.20;;;;;;;;;;110474;1256;22137;-72
2023/03/13 06:44:12;;;;;;;18.10;7.30;;;;;;;;;;110190;1279;22091;-71
2023/03/13 06:46:39;;;;;;;15.20;6.30;;;;;;;;;;110327;1279;22117;-77
2023/03/13 06:49:07;;;;;;;16.40;6.70;;;;;;;;;;110333;1279;22141;-72
2023/03/13 06:51:34;;;;;;;20.00;6.30;;;;;;;;;;110311;1256;22038;-72
2023/03/13 06:54:02;;;;;;;18.30;6.10;;;;;;;;;;110174;1274;22737;-72
2023/03/13 06:56:29;;;;;;;16.70;5.10;;;;;;;;;;110449;1278;22093;-72
2023/03/13 06:58:57;;;;;;;19.40;6.20;;;;;;;;;;110468;1278;22120;-71
2023/03/13 07:01:24;;;;;;;16.10;5.60;;;;;;;;;;108523;1278;2515003;-72
2023/03/13 07:03:52;;;;;;;16.80;5.70;;;;;;;;;;110522;1259;22137;-72
2023/03/13 07:06:20;;;;;;;16.90;5.20;;;;;;;;;;110293;1279;22192;-72
2023/03/13 07:08:48;;;;;;;16.60;5.10;;;;;;;;;;110320;1272;22112;-71
2023/03/13 07:11:16;;;;;;;14.40;5.00;;;;;;;;;;110303;1279;22124;-72
2023/03/13 07:13:44;;;;;;;16.20;5.60;;;;;;;;;;110580;1259;22608;-71
2023/03/13 07:16:13;;;;;;;13.50;5.10;;;;;;;;;;110431;1278;22891;-72
2023/03/13 07:18:43;;;;;;;15.70;5.00;;;;;;;;;;110167;1278;22096;-74
2023/03/13 07:21:10;;;;;;;13.00;4.30;;;;;;;;;;110435;1278;22096;-72
2023/03/13 07:23:38;;;;;;;15.30;5.00;;;;;;;;;;110583;1259;22133;-72
2023/03/13 07:26:09;;;;;;;15.60;5.20;;;;;;;;;;110107;1279;22776;-73
2023/03/13 07:28:37;;;;;;;13.70;5.50;;;;;;;;;;110183;1279;22204;-72
2023/03/13 07:31:05;;;;;;;16.00;5.30;;;;;;;;;;110180;1279;22731;-72
2023/03/13 07:33:33;;;;;;;16.70;5.30;;;;;;;;;;110525;1259;22872;-72
2023/03/13 07:36:00;;;;;;;15.00;6.00;;;;;;;;;;110193;1278;22112;-72
2023/03/13 07:38:28;;;;;;;19.00;6.30;;;;;;;;;;110304;1278;22101;-71
2023/03/13 07:40:56;;;;;;;20.40;6.10;;;;;;;;;;110332;1278;22781;-72
2023/03/13 07:43:25;;;;;;;14.70;5.50;;;;;;;;;;110201;1262;22881;-72
2023/03/13 07:45:58;;;;;;;18.00;7.30;;;;;;;;;;110149;1280;22811;-72
2023/03/13 07:48:31;;;;;;;14.00;5.80;;;;;;;;;;110071;1280;22139;-72
2023/03/13 07:51:02;;;;;;;13.30;5.00;;;;;;;;;;110070;1280;22818;-72
2023/03/13 07:53:31;;;;;;;17.20;5.60;;;;;;;;;;110212;1261;22141;-74
2023/03/13 07:56:01;;;;;;;15.70;5.40;;;;;;;;;;110267;1279;22105;-71
2023/03/13 07:58:31;;;;;;;15.60;5.00;;;;;;;;;;110277;1279;22753;-72
2023/03/13 08:01:01;;;;;;;12.60;4.50;;;;;;;;;;110149;1279;22088;-72
2023/03/13 08:03:30;;;;;;;12.80;4.50;;;;;;;;;;110196;1262;22116;-72
2023/03/13 08:06:06;;;;;;;13.00;4.70;;;;;;;;;;110147;1280;22784;-76
2023/03/13 08:08:35;;;;;;;15.60;4.70;;;;;;;;;;110151;1280;22082;-73
2023/03/13 08:11:04;;;;;;;14.40;4.90;;;;;;;;;;110151;1280;22573;-73
2023/03/13 08:13:34;;;;;;;15.90;4.50;;;;;;;;;;110209;1260;22168;-74
2023/03/13 08:16:10;;;;;;;14.10;4.70;;;;;;;;;;110142;1279;22220;-71
2023/03/13 08:18:41;;;;;;;15.50;5.00;;;;;;;;;;110264;1279;22398;-72
2023/03/13 08:21:20;;;;;;;18.20;5.20;;;;;;;;;;110244;1279;22127;-72
2023/03/13 08:23:49;;;;;;;13.10;4.20;;;;;;;;;;110227;1260;22192;-72
2023/03/13 08:26:19;;;;;;;13.40;4.00;;;;;;;;;;110136;1280;21999;-72
2023/03/13 08:28:51;;;;;;;12.50;4.60;;;;;;;;;;110136;1280;22130;-73
2023/03/13 08:31:25;;;;;;;15.00;5.10;;;;;;;;;;110068;1280;22939;-74
2023/03/13 08:33:53;;;;;;;17.50;5.40;;;;;;;;;;110128;1257;22103;-72
2023/03/13 08:36:48;;;;;;;15.00;4.20;;;;;;;;;;110162;1279;22117;-72
2023/03/13 08:39:18;;;;;;;13.80;4.70;;;;;;;;;;110150;1279;22211;-72
2023/03/13 08:49:22;;;;;;;16.90;4.90;;;;;;;;;;103816;1304;545920;-72
2023/03/13 08:51:49;;;;;;;18.50;5.60;;;;;;;;;;106324;1280;25185;-71
2023/03/13 08:54:16;;;;;;;20.30;6.20;;;;;;;;;;106346;1280;22601;-75
2023/03/13 08:56:43;;;;;;;19.00;5.60;;;;;;;;;;106066;1285;22529;-72
2023/03/13 08:59:11;;;;;;;15.40;6.00;;;;;;;;;;106714;1257;25437;-76
2023/03/13 09:01:38;;;;;;;18.80;6.30;;;;;;;;;;106733;1276;22523;-74
2023/03/13 09:04:08;;;;;;;16.00;4.70;;;;;;;;;;104736;1274;2693906;-76
2023/03/13 09:06:36;;;;;;;17.70;4.80;;;;;;;;;;106689;1275;22576;-73
2023/03/13 09:09:04;;;;;;;14.00;4.10;;;;;;;;;;106710;1258;22521;-73
2023/03/13 09:11:31;;;;;;;14.50;4.40;;;;;;;;;;106708;1274;22639;-80
2023/03/13 09:13:58;;;;;;;12.30;3.60;;;;;;;;;;106710;1273;24167;-76
2023/03/13 09:16:29;;;;;;;18.80;3.90;;;;;;;;;;106770;1275;24173;-72
2023/03/13 09:18:56;;;;;;;18.20;3.80;;;;;;;;;;106735;1267;25328;-73
2023/03/13 09:21:24;;;;;;;17.30;3.50;;;;;;;;;;106670;1275;22632;-75
2023/03/13 09:23:51;;;;;;;13.10;3.60;;;;;;;;;;106688;1272;22527;-73
2023/03/13 09:26:19;;;;;;;12.90;3.40;;;;;;;;;;106647;1278;22640;-77
2023/03/13 09:28:46;;;;;;;17.90;3.60;;;;;;;;;;106541;1278;22536;-73
2023/03/13 09:31:15;;;;;;;15.20;3.40;;;;;;;;;;106738;1259;25288;-75
2023/03/13 09:33:49;;;;;;;11.80;3.50;;;;;;;;;;106885;1277;25335;-72
2023/03/13 09:36:19;;;;;;;18.10;4.20;;;;;;;;;;106845;1277;22561;-80
2023/03/13 09:38:46;;;;;;;12.60;3.00;;;;;;;;;;106843;1277;25319;-76
2023/03/13 09:41:15;;;;;;;12.20;3.00;;;;;;;;;;106809;1260;22548;-73
2023/03/13 09:44:05;;;;;;;12.00;2.90;;;;;;;;;;106808;1271;26704;-73
2023/03/13 09:46:37;;;;;;;13.30;3.00;;;;;;;;;;106710;1273;25230;-73
2023/03/13 09:49:17;;;;;;;13.90;3.20;;;;;;;;;;106834;1271;24253;-72
2023/03/13 09:51:49;;;;;;;13.70;3.10;;;;;;;;;;106817;1259;22526;-73
2023/03/13 09:54:20;;;;;;;10.60;2.70;;;;;;;;;;106826;1272;22543;-75
2023/03/13 09:56:54;;;;;;;15.10;3.50;;;;;;;;;;106818;1275;22518;-74
2023/03/13 09:59:27;;;;;;;12.70;3.70;;;;;;;;;;106846;1260;24239;-72
2023/03/13 10:01:56;;;;;;;14.50;3.20;;;;;;;;;;106509;1272;22530;-76
2023/03/13 10:04:28;;;;;;;13.40;3.70;;;;;;;;;;106740;1273;24199;-70
2023/03/13 10:06:55;;;;;;;16.40;3.80;;;;;;;;;;106503;1272;24201;-74
2023/03/13 10:09:30;;;;;;;15.50;2.70;;;;;;;;;;106563;1274;25453;-72
2023/03/13 10:12:02;;;;;;;16.30;3.00;;;;;;;;;;106758;1261;24240;-72
2023/03/13 10:14:47;;;;;;;16.60;3.30;;;;;;;;;;106627;1273;24202;-76
2023/03/13 10:17:21;;;;;;;15.50;3.00;;;;;;;;;;106687;1273;22553;-73
2023/03/13 10:19:53;;;;;;;17.20;3.00;;;;;;;;;;106804;1275;25236;-72
2023/03/13 10:22:25;;;;;;;12.80;3.20;;;;;;;;;;106464;1272;24219;-73
2023/03/13 10:25:02;;;;;;;12.80;2.80;;;;;;;;;;106615;1272;22530;-79
2023/03/13 10:27:29;;;;;;;11.80;3.30;;;;;;;;;;106622;1272;22527;-74
2023/03/13 10:29:56;;;;;;;9.60;2.80;;;;;;;;;;106623;1273;25251;-78
2023/03/13 10:32:23;;;;;;;14.60;3.20;;;;;;;;;;106720;1261;25236;-73
2023/03/13 10:35:13;;;;;;;10.20;2.50;;;;;;;;;;106821;1272;24217;-73
2023/03/13 10:37:42;;;;;;;13.30;3.00;;;;;;;;;;106753;1273;24070;-75
2023/03/13 10:40:30;;;;;;;12.30;2.90;;;;;;;;;;106626;1272;25463;-73
2023/03/13 10:43:04;;;;;;;14.20;3.40;;;;;;;;;;106473;1260;22530;-72
2023/03/13 10:45:34;;;;;;;14.30;3.70;;;;;;;;;;106544;1272;22542;-72
2023/03/13 10:48:11;;;;;;;15.30;4.30;;;;;;;;;;106631;1272;24343;-74
2023/03/13 10:50:40;;;;;;;10.90;2.90;;;;;;;;;;106434;1276;24257;-72
2023/03/13 10:53:22;;;;;;;10.20;3.00;;;;;;;;;;106740;1259;23248;-73
2023/03/13 10:55:54;;;;;;;10.40;2.90;;;;;;;;;;106780;1272;25439;-76
2023/03/13 10:58:41;;;;;;;9.40;2.30;;;;;;;;;;106774;1272;22501;-77
2023/03/13 11:01:32;;;;;;;10.60;2.30;;;;;;;;;;106718;1271;22524;-71
2023/03/13 11:04:25;;;;;;;12.20;3.10;;;;;;;;;;106534;1264;22533;-75
2023/03/13 11:06:57;;;;;;;13.00;2.70;;;;;;;;;;106499;1278;22679;-74
2023/03/13 11:09:33;;;;;;;12.40;2.70;;;;;;;;;;106462;1279;25343;-72
2023/03/13 11:12:06;;;;;;;8.50;2.00;;;;;;;;;;106581;1273;22520;-73
2023/03/13 11:14:35;;;;;;;8.50;2.40;;;;;;;;;;106719;1275;22647;-74
2023/03/13 11:17:08;;;;;;;8.70;3.20;;;;;;;;;;106490;1278;22553;-73
2023/03/13 11:19:42;;;;;;;12.00;3.20;;;;;;;;;;106599;1272;25224;-73
2023/03/13 11:22:12;;;;;;;10.80;2.90;;;;;;;;;;106616;1257;22553;-75
2023/03/13 11:25:00;;;;;;;11.20;2.20;;;;;;;;;;106721;1275;22544;-78
2023/03/13 11:27:57;;;;;;;8.80;2.20;;;;;;;;;;106637;1276;22539;-73
2023/03/13 11:30:32;;;;;;;9.80;2.30;;;;;;;;;;106446;1275;22557;-79
2023/03/13 11:33:19;;;;;;;8.30;2.10;;;;;;;;;;106539;1259;22549;-76
2023/03/13 11:35:49;;;;;;;11.70;2.20;;;;;;;;;;106802;1272;22642;-74
2023/03/13 11:38:17;;;;;;;8.20;1.90;;;;;;;;;;106832;1272;25831;-74
2023/03/13 11:41:00;;;;;;;8.00;1.60;;;;;;;;;;106858;1272;26198;-72
2023/03/13 11:43:44;;;;;;;11.30;2.50;;;;;;;;;;106836;1263;24247;-72
2023/03/13 11:46:21;;;;;;;8.30;2.60;;;;;;;;;;106855;1273;24259;-73
2023/03/13 11:49:20;;;;;;;10.20;2.60;;;;;;;;;;106854;1275;25348;-74
2023/03/13 11:51:57;;;;;;;8.10;2.80;;;;;;;;;;106673;1276;22515;-72
2023/03/13 11:54:36;;;;;;;9.30;2.30;;;;;;;;;;106874;1259;22533;-75
2023/03/13 11:57:34;;;;;;;7.90;2.00;;;;;;;;;;106839;1271;24387;-72
2023/03/13 12:00:21;;;;;;;9.00;2.20;;;;;;;;;;106807;1275;22526;-72
2023/03/13 12:03:18;;;;;;;;;;;;;;;;;;;;;
2023/03/13 12:05:56;;;;;;;8.00;2.10;;;;;;;;;;106824;1272;25229;-75
2023/03/13 12:08:44;;;;;;;8.10;2.30;;;;;;;;;;106699;1278;22673;-73
2023/03/13 12:11:31;;;;;;;;;;;;;;;;;;;;;
2023/03/13 12:14:21;;;;;;;9.00;2.50;;;;;;;;;;106567;1260;22529;-73
2023/03/13 12:16:51;;;;;;;7.40;2.20;;;;;;;;;;106873;1275;22520;-75
2023/03/13 12:19:21;;;;;;;8.20;2.10;;;;;;;;;;106845;1272;21699;-79
2023/03/13 12:21:52;;;;;;;8.70;2.20;;;;;;;;;;106816;1272;25384;-72
2023/03/13 12:24:27;;;;;;;8.30;2.00;;;;;;;;;;106752;1263;24265;-73
2023/03/13 12:27:04;;;;;;;6.50;2.20;;;;;;;;;;106811;1275;24676;-75
2023/03/13 12:29:51;;;;;;;8.70;2.50;;;;;;;;;;106853;1271;22527;-75
2023/03/13 12:32:28;;;;;;;7.00;2.50;;;;;;;;;;106803;1272;23118;-76
2023/03/13 12:35:00;;;;;;;10.70;2.40;;;;;;;;;;106762;1260;24179;-74
2023/03/13 12:37:41;;;;;;;7.70;2.50;;;;;;;;;;106813;1276;22547;-75
2023/03/13 12:40:30;;;;;;;8.20;2.30;;;;;;;;;;106859;1275;22539;-76
2023/03/13 12:43:17;;;;;;;8.30;2.70;;;;;;;;;;106852;1272;25259;-76
2023/03/13 12:46:05;;;;;;;11.40;2.80;;;;;;;;;;106817;1260;24196;-72
2023/03/13 12:48:32;;;;;;;10.10;2.70;;;;;;;;;;106518;1263;24340;-74
2023/03/13 12:51:02;;;;;;;11.00;3.70;;;;;;;;;;106795;1277;22532;-77
2023/03/13 12:53:58;;;;;;;8.60;2.80;;;;;;;;;;106789;1269;25275;-74
2023/03/13 12:56:41;;;;;;;11.60;2.70;;;;;;;;;;107069;1264;24784;-74
2023/03/13 12:59:32;;;;;;;10.70;3.70;;;;;;;;;;106837;1273;22526;-77
2023/03/13 13:01:59;;;;;;;13.50;4.30;;;;;;;;;;106845;1278;22523;-77
2023/03/13 13:04:30;;;;;;;9.90;3.60;;;;;;;;;;106815;1269;23909;-75
2023/03/13 13:07:02;;;;;;;12.40;4.10;;;;;;;;;;106646;1279;25007;-77
2023/03/13 13:09:38;;;;;;;10.70;4.20;;;;;;;;;;106803;1277;22554;-78
2023/03/13 13:12:19;;;;;;;13.20;4.50;;;;;;;;;;106815;1279;25245;-73
2023/03/13 13:14:46;;;;;;;10.80;3.70;;;;;;;;;;106810;1279;22550;-72
2023/03/13 13:17:23;;;;;;;11.40;4.30;;;;;;;;;;106772;1278;25375;-74
2023/03/13 13:19:50;;;;;;;8.70;2.90;;;;;;;;;;106821;1279;22527;-77
2023/03/13 13:22:57;;;;;;;12.30;3.60;;;;;;;;;;106827;1273;22672;-74
2023/03/13 13:25:23;;;;;;;12.70;3.20;;;;;;;;;;106823;1261;22529;-72
2023/03/13 13:27:50;;;;;;;11.40;3.30;;;;;;;;;;106784;1272;22529;-76
2023/03/13 13:30:17;;;;;;;9.80;2.50;;;;;;;;;;106436;1273;25313;-75
2023/03/13 13:32:45;;;;;;;11.40;2.60;;;;;;;;;;106713;1275;24257;-72
2023/03/13 13:35:18;;;;;;;11.80;3.40;;;;;;;;;;106668;1256;23898;-73
2023/03/13 13:37:46;;;;;;;12.10;3.90;;;;;;;;;;106739;1273;24230;-74
2023/03/13 13:40:15;;;;;;;10.60;3.10;;;;;;;;;;106799;1257;24376;-75
2023/03/13 13:42:46;;;;;;;12.70;2.90;;;;;;;;;;106838;1271;24292;-74
2023/03/13 13:45:13;;;;;;;9.80;3.40;;;;;;;;;;106849;1257;24269;-78
2023/03/13 13:47:42;;;;;;;10.90;3.50;;;;;;;;;;106496;1279;25447;-73
2023/03/13 13:50:29;;;;;;;9.30;2.90;;;;;;;;;;106630;1276;22595;-76
2023/03/13 13:53:15;;;;;;;9.30;3.10;;;;;;;;;;106761;1273;22702;-72
2023/03/13 13:55:43;;;;;;;8.90;2.70;;;;;;;;;;106815;1257;24260;-77
2023/03/13 13:58:10;;;;;;;9.40;3.00;;;;;;;;;;106892;1272;22518;-77
2023/03/13 14:00:40;;;;;;;11.80;3.90;;;;;;;;;;106860;1257;24200;-73
2023/03/13 14:03:40;;;;;;;10.60;3.80;;;;;;;;;;106800;1272;22491;-75
2023/03/13 14:06:20;;;;;;;10.70;3.70;;;;;;;;;;106690;1279;22526;-76
2023/03/13 14:08:50;;;;;;;14.30;5.00;;;;;;;;;;106538;1278;24370;-75
2023/03/13 14:11:30;;;;;;;11.90;4.30;;;;;;;;;;106858;1272;22644;-72
2023/03/13 14:14:14;;;;;;;11.30;4.00;;;;;;;;;;106843;1275;25291;-76
2023/03/13 14:16:46;;;;;;;9.70;3.40;;;;;;;;;;106793;1260;23277;-74
2023/03/13 14:19:20;;;;;;;11.00;3.60;;;;;;;;;;106941;1279;25493;-72
2023/03/13 14:21:48;;;;;;;10.40;3.60;;;;;;;;;;106899;1279;22679;-72
2023/03/13 14:24:15;;;;;;;10.60;3.70;;;;;;;;;;106874;1279;22529;-74
2023/03/13 14:26:43;;;;;;;11.10;3.50;;;;;;;;;;106860;1262;25428;-72
2023/03/13 14:29:17;;;;;;;11.60;3.50;;;;;;;;;;106896;1280;22515;-77
2023/03/13 14:31:49;;;;;;;11.00;3.40;;;;;;;;;;106793;1280;22539;-75
2023/03/13 14:34:16;;;;;;;11.30;2.90;;;;;;;;;;106787;1280;24200;-75
2023/03/13 14:36:53;;;;;;;14.70;4.20;;;;;;;;;;106788;1261;23886;-73
2023/03/13 14:39:34;;;;;;;11.80;4.20;;;;;;;;;;106821;1279;22533;-77
2023/03/13 14:42:03;;;;;;;14.40;3.60;;;;;;;;;;106612;1279;25325;-72
2023/03/13 14:44:32;;;;;;;11.90;3.00;;;;;;;;;;106720;1279;26453;-79
2023/03/13 14:47:03;;;;;;;13.00;4.30;;;;;;;;;;106889;1260;25363;-73
2023/03/13 14:49:31;;;;;;;10.90;3.50;;;;;;;;;;106518;1280;24087;-72
2023/03/13 14:52:03;;;;;;;9.10;2.90;;;;;;;;;;106453;1280;23365;-80
2023/03/13 14:54:50;;;;;;;12.00;3.50;;;;;;;;;;106685;1280;22485;-78
2023/03/13 14:57:20;;;;;;;12.90;3.90;;;;;;;;;;106816;1274;22530;-75
2023/03/13 14:59:47;;;;;;;12.90;4.00;;;;;;;;;;106832;1279;24194;-79
2023/03/13 15:02:14;;;;;;;9.60;3.30;;;;;;;;;;106896;1279;22559;-72
2023/03/13 15:04:51;;;;;;;13.80;4.10;;;;;;;;;;106802;1273;24182;-71
2023/03/13 15:07:18;;;;;;;12.40;4.20;;;;;;;;;;106645;1262;22505;-74